LIPQ

Trieste – Friuli Venezia Giulia Airport

Airport
ICAO code
LIPQ
IATA Code
TRS
Summary
ICAO Region
EUR
ICAO Territory
Location

Ronchi dei Legionari, Friuli-Venezia Giulia

Serving
Trieste
Elevation
39 ft
Coordinates
45° 49' 34" N , 13° 28' 24" E
KCC
Metar
Observation
LIPQ 032020Z AUTO VRB01KT 4100 BR SCT030/// 04/03 Q1021
Station
Ronchi Dei Legionari
Date/Time
2023-02-03 20:20:00
Wind speed
01 kts
Lowest cloud amount
scattered clouds
Temperature
4°C
Dew point
3°C
Humidity
93%
QNH
1021 hPa
Weather condition
n/a

Trieste – Friuli Venezia Giulia Airport is an international airport located 0.3 NM west of Ronchi dei Legionari, near Trieste in Venezia Giulia, north-eastern Italy.

Climatology

Humid subtropical climate (Köppen climate classification Cfa)

Runways

Designator Length Width Surface Rops
9/27 3000 45 ASP Yes/Yes

Airport map

Aerial View

SKYbrary Partners:

Safety knowledge contributed by: